sensor_id;sensor_type;location;lat;lon;timestamp;P1;durP1;ratioP1;P2;durP2;ratioP2
67685;SDS011;54469;52.090;4.312;2023-02-28T00:00:03;4.1;;;1.9;;
67685;SDS011;54469;52.090;4.312;2023-02-28T00:05:02;4.1;;;1.9;;
67685;SDS011;54469;52.090;4.312;2023-02-28T00:10:03;4.1;;;1.9;;
67685;SDS011;54469;52.090;4.312;2023-02-28T00:15:05;10.1;;;2.2;;
67685;SDS011;54469;52.090;4.312;2023-02-28T00:20:04;10.1;;;2.2;;
67685;SDS011;54469;52.090;4.312;2023-02-28T00:25:03;4.6;;;1.7;;
67685;SDS011;54469;52.090;4.312;2023-02-28T00:30:03;4.6;;;1.7;;
67685;SDS011;54469;52.090;4.312;2023-02-28T00:35:02;4.6;;;1.7;;
67685;SDS011;54469;52.090;4.312;2023-02-28T00:40:02;4.6;;;1.7;;
67685;SDS011;54469;52.090;4.312;2023-02-28T00:45:03;8.199999999999998;;;2;;
67685;SDS011;54469;52.090;4.312;2023-02-28T00:50:03;8.199999999999998;;;2;;
67685;SDS011;54469;52.090;4.312;2023-02-28T00:55:03;5;;;1.7;;
67685;SDS011;54469;52.090;4.312;2023-02-28T01:00:03;8.300000000000002;;;2;;
67685;SDS011;54469;52.090;4.312;2023-02-28T01:05:02;5.6;;;1.8;;
67685;SDS011;54469;52.090;4.312;2023-02-28T01:10:02;5.6;;;1.8;;
67685;SDS011;54469;52.090;4.312;2023-02-28T01:15:03;5.6;;;1.8;;
67685;SDS011;54469;52.090;4.312;2023-02-28T01:20:03;5.6;;;1.8;;
67685;SDS011;54469;52.090;4.312;2023-02-28T01:25:03;5.6;;;1.8;;
67685;SDS011;54469;52.090;4.312;2023-02-28T01:30:03;3.5;;;1.9;;
67685;SDS011;54469;52.090;4.312;2023-02-28T01:35:03;5.9;;;1.9;;
67685;SDS011;54469;52.090;4.312;2023-02-28T01:40:03;3.4;;;1.8;;
67685;SDS011;54469;52.090;4.312;2023-02-28T01:50:03;3.4;;;1.8;;
67685;SDS011;54469;52.090;4.312;2023-02-28T01:55:04;5.6;;;2.1;;
67685;SDS011;54469;52.090;4.312;2023-02-28T02:00:05;5.6;;;2.1;;
67685;SDS011;54469;52.090;4.312;2023-02-28T02:05:03;5.6;;;2.1;;
67685;SDS011;54469;52.090;4.312;2023-02-28T02:10:03;5.6;;;2.1;;
67685;SDS011;54469;52.090;4.312;2023-02-28T02:15:04;5.6;;;2.1;;
67685;SDS011;54469;52.090;4.312;2023-02-28T02:25:11;5.6;;;2.1;;
67685;SDS011;54469;52.090;4.312;2023-02-28T02:32:20;5.6;;;2.1;;
67685;SDS011;54469;52.090;4.312;2023-02-28T02:35:05;5.6;;;2.1;;
67685;SDS011;54469;52.090;4.312;2023-02-28T02:40:04;5.6;;;2.1;;
67685;SDS011;54469;52.090;4.312;2023-02-28T02:45:04;7.6;;;2.4;;
67685;SDS011;54469;52.090;4.312;2023-02-28T02:50:04;7.6;;;2.4;;
67685;SDS011;54469;52.090;4.312;2023-02-28T02:55:03;7.6;;;2.4;;
67685;SDS011;54469;52.090;4.312;2023-02-28T03:00:04;7.6;;;2.4;;
67685;SDS011;54469;52.090;4.312;2023-02-28T03:05:03;7.6;;;2.4;;
67685;SDS011;54469;52.090;4.312;2023-02-28T03:10:25;7.6;;;2.4;;
67685;SDS011;54469;52.090;4.312;2023-02-28T03:15:05;7.6;;;2.4;;
67685;SDS011;54469;52.090;4.312;2023-02-28T03:20:04;7.6;;;2.4;;
67685;SDS011;54469;52.090;4.312;2023-02-28T03:25:04;4.8;;;2.7;;
67685;SDS011;54469;52.090;4.312;2023-02-28T03:30:04;10.6;;;2.8;;
67685;SDS011;54469;52.090;4.312;2023-02-28T03:35:03;8.5;;;2.7;;
67685;SDS011;54469;52.090;4.312;2023-02-28T03:40:04;8.5;;;2.7;;
67685;SDS011;54469;52.090;4.312;2023-02-28T03:45:02;8.5;;;2.7;;
67685;SDS011;54469;52.090;4.312;2023-02-28T03:50:03;8.5;;;2.7;;
67685;SDS011;54469;52.090;4.312;2023-02-28T03:55:03;8.5;;;2.7;;
67685;SDS011;54469;52.090;4.312;2023-02-28T04:00:04;5.6;;;3;;
67685;SDS011;54469;52.090;4.312;2023-02-28T04:05:03;8.9;;;3.3;;
67685;SDS011;54469;52.090;4.312;2023-02-28T04:10:03;8.9;;;3.3;;
67685;SDS011;54469;52.090;4.312;2023-02-28T04:15:02;11.5;;;3.4;;
67685;SDS011;54469;52.090;4.312;2023-02-28T04:20:03;6.3;;;3.3;;
67685;SDS011;54469;52.090;4.312;2023-02-28T04:25:03;6.3;;;3.3;;
67685;SDS011;54469;52.090;4.312;2023-02-28T04:30:03;6.3;;;3.3;;
67685;SDS011;54469;52.090;4.312;2023-02-28T04:35:03;9.6;;;3.2;;
67685;SDS011;54469;52.090;4.312;2023-02-28T04:40:03;9.6;;;3.2;;
67685;SDS011;54469;52.090;4.312;2023-02-28T04:45:03;9.6;;;3.2;;
67685;SDS011;54469;52.090;4.312;2023-02-28T04:50:03;9.6;;;3.2;;
67685;SDS011;54469;52.090;4.312;2023-02-28T04:55:04;9.6;;;3.2;;
67685;SDS011;54469;52.090;4.312;2023-02-28T05:00:03;11.9;;;4.2;;
67685;SDS011;54469;52.090;4.312;2023-02-28T05:05:03;8.9;;;3.4;;
67685;SDS011;54469;52.090;4.312;2023-02-28T05:10:02;8.9;;;3.4;;
67685;SDS011;54469;52.090;4.312;2023-02-28T05:15:02;11.3;;;4.1;;
67685;SDS011;54469;52.090;4.312;2023-02-28T05:20:02;7.9;;;3.8;;
67685;SDS011;54469;52.090;4.312;2023-02-28T05:25:02;11.1;;;4.3;;
67685;SDS011;54469;52.090;4.312;2023-02-28T05:30:02;7.5;;;3.7;;
67685;SDS011;54469;52.090;4.312;2023-02-28T05:35:02;7.5;;;3.7;;
67685;SDS011;54469;52.090;4.312;2023-02-28T05:40:02;12.1;;;4.1;;
67685;SDS011;54469;52.090;4.312;2023-02-28T05:45:03;8.699999999999998;;;4.2;;
67685;SDS011;54469;52.090;4.312;2023-02-28T05:50:03;8.699999999999998;;;4.2;;
67685;SDS011;54469;52.090;4.312;2023-02-28T05:55:03;8.699999999999998;;;4.2;;
67685;SDS011;54469;52.090;4.312;2023-02-28T06:00:03;6.6;;;3.9;;
67685;SDS011;54469;52.090;4.312;2023-02-28T06:05:03;8.699999999999998;;;4.1;;
67685;SDS011;54469;52.090;4.312;2023-02-28T06:10:02;8.699999999999998;;;4.1;;
67685;SDS011;54469;52.090;4.312;2023-02-28T06:15:02;8.699999999999998;;;4.1;;
67685;SDS011;54469;52.090;4.312;2023-02-28T06:20:03;8.699999999999998;;;4.1;;
67685;SDS011;54469;52.090;4.312;2023-02-28T06:25:03;10.8;;;4.2;;
67685;SDS011;54469;52.090;4.312;2023-02-28T06:30:03;3.5;;;2;;
67685;SDS011;54469;52.090;4.312;2023-02-28T06:35:03;8.5;;;4.3;;
67685;SDS011;54469;52.090;4.312;2023-02-28T06:40:03;8.5;;;4.3;;
67685;SDS011;54469;52.090;4.312;2023-02-28T06:45:03;8.5;;;4.3;;
67685;SDS011;54469;52.090;4.312;2023-02-28T06:50:03;8.5;;;4.3;;
67685;SDS011;54469;52.090;4.312;2023-02-28T06:55:03;8.5;;;4.3;;
67685;SDS011;54469;52.090;4.312;2023-02-28T07:00:04;8.5;;;4.3;;
67685;SDS011;54469;52.090;4.312;2023-02-28T07:05:03;8.5;;;4.3;;
67685;SDS011;54469;52.090;4.312;2023-02-28T07:10:03;8.5;;;4.3;;
67685;SDS011;54469;52.090;4.312;2023-02-28T07:15:03;8.5;;;4.3;;
67685;SDS011;54469;52.090;4.312;2023-02-28T07:20:03;12.8;;;5.1;;
67685;SDS011;54469;52.090;4.312;2023-02-28T07:25:03;7.8;;;4.7;;
67685;SDS011;54469;52.090;4.312;2023-02-28T07:35:03;7.8;;;4.7;;
67685;SDS011;54469;52.090;4.312;2023-02-28T07:40:03;5;;;3.2;;
67685;SDS011;54469;52.090;4.312;2023-02-28T07:45:03;7.9;;;3.8;;
67685;SDS011;54469;52.090;4.312;2023-02-28T07:50:03;3.8;;;2.4;;
67685;SDS011;54469;52.090;4.312;2023-02-28T07:55:03;3.8;;;2.4;;
67685;SDS011;54469;52.090;4.312;2023-02-28T08:00:03;6;;;2.6;;
67685;SDS011;54469;52.090;4.312;2023-02-28T08:05:02;6;;;2.6;;
67685;SDS011;54469;52.090;4.312;2023-02-28T08:10:02;6;;;2.6;;
67685;SDS011;54469;52.090;4.312;2023-02-28T08:15:03;6;;;2.6;;
67685;SDS011;54469;52.090;4.312;2023-02-28T08:20:03;6;;;2.6;;
67685;SDS011;54469;52.090;4.312;2023-02-28T08:25:02;6;;;2.6;;
67685;SDS011;54469;52.090;4.312;2023-02-28T08:30:02;6;;;2.6;;
67685;SDS011;54469;52.090;4.312;2023-02-28T08:35:03;6;;;2.6;;
67685;SDS011;54469;52.090;4.312;2023-02-28T08:40:03;6;;;2.6;;
67685;SDS011;54469;52.090;4.312;2023-02-28T08:45:03;3.8;;;2.4;;
67685;SDS011;54469;52.090;4.312;2023-02-28T08:50:02;3.8;;;2.4;;
67685;SDS011;54469;52.090;4.312;2023-02-28T08:55:02;3.8;;;2.4;;
67685;SDS011;54469;52.090;4.312;2023-02-28T09:00:03;3.8;;;2.4;;
67685;SDS011;54469;52.090;4.312;2023-02-28T09:05:02;6;;;2.6;;
67685;SDS011;54469;52.090;4.312;2023-02-28T09:10:03;6;;;2.6;;
67685;SDS011;54469;52.090;4.312;2023-02-28T09:15:03;6;;;2.6;;
67685;SDS011;54469;52.090;4.312;2023-02-28T09:20:04;6;;;2.6;;
67685;SDS011;54469;52.090;4.312;2023-02-28T09:25:03;3.9;;;2.4;;
67685;SDS011;54469;52.090;4.312;2023-02-28T09:30:02;3.9;;;2.4;;
67685;SDS011;54469;52.090;4.312;2023-02-28T09:35:02;3.9;;;2.4;;
67685;SDS011;54469;52.090;4.312;2023-02-28T09:40:03;3.9;;;2.4;;
67685;SDS011;54469;52.090;4.312;2023-02-28T09:45:05;3.9;;;2.4;;
67685;SDS011;54469;52.090;4.312;2023-02-28T09:50:03;3.9;;;2.4;;
67685;SDS011;54469;52.090;4.312;2023-02-28T09:55:10;3.9;;;2.4;;
67685;SDS011;54469;52.090;4.312;2023-02-28T10:00:06;6.8;;;1.9;;
67685;SDS011;54469;52.090;4.312;2023-02-28T10:05:04;3.4;;;2.1;;
67685;SDS011;54469;52.090;4.312;2023-02-28T10:10:04;3.4;;;2.1;;
67685;SDS011;54469;52.090;4.312;2023-02-28T10:15:03;3.4;;;2.1;;
67685;SDS011;54469;52.090;4.312;2023-02-28T10:20:05;3.4;;;2.1;;
67685;SDS011;54469;52.090;4.312;2023-02-28T10:25:05;3.4;;;2.1;;
67685;SDS011;54469;52.090;4.312;2023-02-28T10:30:03;3.4;;;2.1;;
67685;SDS011;54469;52.090;4.312;2023-02-28T10:35:06;3.4;;;2.1;;
67685;SDS011;54469;52.090;4.312;2023-02-28T10:40:02;3.4;;;2.1;;
67685;SDS011;54469;52.090;4.312;2023-02-28T10:45:06;3.4;;;2.1;;
67685;SDS011;54469;52.090;4.312;2023-02-28T10:50:03;3.4;;;2.1;;
67685;SDS011;54469;52.090;4.312;2023-02-28T10:55:20;3.4;;;2.1;;
67685;SDS011;54469;52.090;4.312;2023-02-28T11:00:08;3.4;;;2.1;;
67685;SDS011;54469;52.090;4.312;2023-02-28T11:05:10;3.4;;;2.1;;
67685;SDS011;54469;52.090;4.312;2023-02-28T11:10:02;3.4;;;2.1;;
67685;SDS011;54469;52.090;4.312;2023-02-28T11:15:04;3.4;;;2.1;;
67685;SDS011;54469;52.090;4.312;2023-02-28T11:20:04;3.4;;;2.1;;
67685;SDS011;54469;52.090;4.312;2023-02-28T11:25:06;3.4;;;2.1;;
67685;SDS011;54469;52.090;4.312;2023-02-28T11:30:03;3.4;;;2.1;;
67685;SDS011;54469;52.090;4.312;2023-02-28T11:35:04;3.4;;;2.1;;
67685;SDS011;54469;52.090;4.312;2023-02-28T11:40:04;3.4;;;2.1;;
67685;SDS011;54469;52.090;4.312;2023-02-28T11:45:08;1.2;;;1.1;;
67685;SDS011;54469;52.090;4.312;2023-02-28T11:50:07;1.2;;;1.1;;
67685;SDS011;54469;52.090;4.312;2023-02-28T11:55:07;1.2;;;1.1;;
67685;SDS011;54469;52.090;4.312;2023-02-28T12:00:07;1.2;;;1.1;;
67685;SDS011;54469;52.090;4.312;2023-02-28T12:05:09;5.6;;;1.9;;
67685;SDS011;54469;52.090;4.312;2023-02-28T12:10:05;3.3;;;2;;
67685;SDS011;54469;52.090;4.312;2023-02-28T12:15:05;3.3;;;2;;
67685;SDS011;54469;52.090;4.312;2023-02-28T12:20:08;5.5;;;2;;
67685;SDS011;54469;52.090;4.312;2023-02-28T12:25:16;2.5;;;1.6;;
67685;SDS011;54469;52.090;4.312;2023-02-28T12:30:04;2.5;;;1.6;;
67685;SDS011;54469;52.090;4.312;2023-02-28T12:35:04;2.5;;;1.6;;
67685;SDS011;54469;52.090;4.312;2023-02-28T12:40:04;2.5;;;1.6;;
67685;SDS011;54469;52.090;4.312;2023-02-28T12:45:04;2.5;;;1.6;;
67685;SDS011;54469;52.090;4.312;2023-02-28T12:50:03;2.5;;;1.6;;
67685;SDS011;54469;52.090;4.312;2023-02-28T12:55:04;2.5;;;1.6;;
67685;SDS011;54469;52.090;4.312;2023-02-28T13:00:03;2.5;;;1.6;;
67685;SDS011;54469;52.090;4.312;2023-02-28T13:05:07;2.5;;;1.6;;
67685;SDS011;54469;52.090;4.312;2023-02-28T13:10:03;2.5;;;1.6;;
67685;SDS011;54469;52.090;4.312;2023-02-28T13:15:04;2.5;;;1.6;;
67685;SDS011;54469;52.090;4.312;2023-02-28T13:20:02;2.5;;;1.6;;
67685;SDS011;54469;52.090;4.312;2023-02-28T13:25:04;2.5;;;1.6;;
67685;SDS011;54469;52.090;4.312;2023-02-28T13:30:59;2.5;;;1.6;;
67685;SDS011;54469;52.090;4.312;2023-02-28T13:40:27;2.5;;;1.6;;
67685;SDS011;54469;52.090;4.312;2023-02-28T13:45:27;2.5;;;1.6;;
67685;SDS011;54469;52.090;4.312;2023-02-28T13:50:20;2.5;;;1.6;;
67685;SDS011;54469;52.090;4.312;2023-02-28T13:55:12;2.5;;;1.6;;
67685;SDS011;54469;52.090;4.312;2023-02-28T14:00:07;2.5;;;1.6;;
67685;SDS011;54469;52.090;4.312;2023-02-28T14:05:05;2.5;;;1.6;;
67685;SDS011;54469;52.090;4.312;2023-02-28T14:10:03;2.5;;;1.6;;
67685;SDS011;54469;52.090;4.312;2023-02-28T14:15:03;2.5;;;1.6;;
67685;SDS011;54469;52.090;4.312;2023-02-28T14:20:02;2.5;;;1.6;;
67685;SDS011;54469;52.090;4.312;2023-02-28T14:25:07;2.5;;;1.6;;
67685;SDS011;54469;52.090;4.312;2023-02-28T14:30:10;2.5;;;1.6;;
67685;SDS011;54469;52.090;4.312;2023-02-28T14:35:05;2.5;;;1.6;;
67685;SDS011;54469;52.090;4.312;2023-02-28T14:40:04;2.5;;;1.6;;
67685;SDS011;54469;52.090;4.312;2023-02-28T14:45:03;2.5;;;1.6;;
67685;SDS011;54469;52.090;4.312;2023-02-28T14:50:03;2.5;;;1.6;;
67685;SDS011;54469;52.090;4.312;2023-02-28T14:55:03;2.5;;;1.6;;
67685;SDS011;54469;52.090;4.312;2023-02-28T15:00:04;2.5;;;1.6;;
67685;SDS011;54469;52.090;4.312;2023-02-28T15:05:10;2.5;;;1.6;;
67685;SDS011;54469;52.090;4.312;2023-02-28T15:10:07;2.5;;;1.6;;
67685;SDS011;54469;52.090;4.312;2023-02-28T15:15:03;2.5;;;1.6;;
67685;SDS011;54469;52.090;4.312;2023-02-28T15:20:03;2.5;;;1.6;;
67685;SDS011;54469;52.090;4.312;2023-02-28T15:25:03;2.5;;;1.6;;
67685;SDS011;54469;52.090;4.312;2023-02-28T15:30:04;2.5;;;1.6;;
67685;SDS011;54469;52.090;4.312;2023-02-28T15:35:17;2.5;;;1.6;;
67685;SDS011;54469;52.090;4.312;2023-02-28T15:40:10;2.5;;;1.6;;
67685;SDS011;54469;52.090;4.312;2023-02-28T15:45:04;2.5;;;1.6;;
67685;SDS011;54469;52.090;4.312;2023-02-28T15:50:03;2.5;;;1.6;;
67685;SDS011;54469;52.090;4.312;2023-02-28T15:55:08;7.5;;;2;;
67685;SDS011;54469;52.090;4.312;2023-02-28T16:00:04;2.6;;;1.8;;
67685;SDS011;54469;52.090;4.312;2023-02-28T16:05:17;2.6;;;1.8;;
67685;SDS011;54469;52.090;4.312;2023-02-28T16:10:03;4.7;;;1.9;;
67685;SDS011;54469;52.090;4.312;2023-02-28T16:15:05;4.7;;;1.9;;
67685;SDS011;54469;52.090;4.312;2023-02-28T16:20:11;4.7;;;1.9;;
67685;SDS011;54469;52.090;4.312;2023-02-28T16:25:03;4.7;;;1.9;;
67685;SDS011;54469;52.090;4.312;2023-02-28T16:30:03;4.7;;;1.9;;
67685;SDS011;54469;52.090;4.312;2023-02-28T16:35:03;2.6;;;1.8;;
67685;SDS011;54469;52.090;4.312;2023-02-28T16:40:03;2.6;;;1.8;;
67685;SDS011;54469;52.090;4.312;2023-02-28T16:45:03;2.6;;;1.8;;
67685;SDS011;54469;52.090;4.312;2023-02-28T16:50:08;2.6;;;1.8;;
67685;SDS011;54469;52.090;4.312;2023-02-28T16:55:02;6;;;2.4;;
67685;SDS011;54469;52.090;4.312;2023-02-28T17:00:04;6;;;2.4;;
67685;SDS011;54469;52.090;4.312;2023-02-28T17:05:03;2.9;;;2;;
67685;SDS011;54469;52.090;4.312;2023-02-28T17:10:08;2.9;;;2;;
67685;SDS011;54469;52.090;4.312;2023-02-28T17:15:03;5.3;;;1.8;;
67685;SDS011;54469;52.090;4.312;2023-02-28T17:20:03;5.3;;;1.8;;
67685;SDS011;54469;52.090;4.312;2023-02-28T17:25:02;5.3;;;1.8;;
67685;SDS011;54469;52.090;4.312;2023-02-28T17:30:04;2.7;;;1.8;;
67685;SDS011;54469;52.090;4.312;2023-02-28T17:35:02;2.7;;;1.8;;
67685;SDS011;54469;52.090;4.312;2023-02-28T17:40:02;2.7;;;1.8;;
67685;SDS011;54469;52.090;4.312;2023-02-28T17:45:03;5.8;;;2.8;;
67685;SDS011;54469;52.090;4.312;2023-02-28T17:50:03;5.8;;;2.8;;
67685;SDS011;54469;52.090;4.312;2023-02-28T17:55:03;5.8;;;2.8;;
67685;SDS011;54469;52.090;4.312;2023-02-28T18:00:03;5.8;;;2.8;;
67685;SDS011;54469;52.090;4.312;2023-02-28T18:05:03;5.8;;;2.8;;
67685;SDS011;54469;52.090;4.312;2023-02-28T18:10:03;5.8;;;2.8;;
67685;SDS011;54469;52.090;4.312;2023-02-28T18:15:02;5.8;;;2.8;;
67685;SDS011;54469;52.090;4.312;2023-02-28T18:20:02;9.300000000000002;;;2.7;;
67685;SDS011;54469;52.090;4.312;2023-02-28T18:25:02;9.4;;;3.8;;
67685;SDS011;54469;52.090;4.312;2023-02-28T18:30:03;5.7;;;3;;
67685;SDS011;54469;52.090;4.312;2023-02-28T18:35:02;6.8;;;4;;
67685;SDS011;54469;52.090;4.312;2023-02-28T18:40:03;6.8;;;4;;
67685;SDS011;54469;52.090;4.312;2023-02-28T18:45:03;6.8;;;4;;
67685;SDS011;54469;52.090;4.312;2023-02-28T18:50:03;5.9;;;3;;
67685;SDS011;54469;52.090;4.312;2023-02-28T18:55:02;5.9;;;3;;
67685;SDS011;54469;52.090;4.312;2023-02-28T19:00:03;5.9;;;3;;
67685;SDS011;54469;52.090;4.312;2023-02-28T19:05:03;5.9;;;3;;
67685;SDS011;54469;52.090;4.312;2023-02-28T19:10:03;5.9;;;3;;
67685;SDS011;54469;52.090;4.312;2023-02-28T19:15:03;5.9;;;3;;
67685;SDS011;54469;52.090;4.312;2023-02-28T19:20:03;8.5;;;3.8;;
67685;SDS011;54469;52.090;4.312;2023-02-28T19:25:03;5.3;;;3.4;;
67685;SDS011;54469;52.090;4.312;2023-02-28T19:30:03;5.3;;;3.4;;
67685;SDS011;54469;52.090;4.312;2023-02-28T19:35:02;5.3;;;3.4;;
67685;SDS011;54469;52.090;4.312;2023-02-28T19:40:03;5.3;;;3.4;;
67685;SDS011;54469;52.090;4.312;2023-02-28T19:45:03;5.3;;;3.4;;
67685;SDS011;54469;52.090;4.312;2023-02-28T19:50:03;5.3;;;3.4;;
67685;SDS011;54469;52.090;4.312;2023-02-28T19:55:03;9.199999999999998;;;3.8;;
67685;SDS011;54469;52.090;4.312;2023-02-28T20:00:03;6.9;;;3.6;;
67685;SDS011;54469;52.090;4.312;2023-02-28T20:05:03;6.9;;;3.6;;
67685;SDS011;54469;52.090;4.312;2023-02-28T20:10:03;6.9;;;3.6;;
67685;SDS011;54469;52.090;4.312;2023-02-28T20:15:03;6.9;;;3.6;;
67685;SDS011;54469;52.090;4.312;2023-02-28T20:20:22;6.9;;;3.6;;
67685;SDS011;54469;52.090;4.312;2023-02-28T20:25:02;39.1;;;20.3;;
67685;SDS011;54469;52.090;4.312;2023-02-28T20:30:02;6.7;;;3.9;;
67685;SDS011;54469;52.090;4.312;2023-02-28T20:35:02;12;;;5.2;;
67685;SDS011;54469;52.090;4.312;2023-02-28T20:40:03;8.800000000000002;;;4.3;;
67685;SDS011;54469;52.090;4.312;2023-02-28T20:45:03;8.800000000000002;;;4.3;;
67685;SDS011;54469;52.090;4.312;2023-02-28T20:50:03;8.800000000000002;;;4.3;;
67685;SDS011;54469;52.090;4.312;2023-02-28T20:55:03;8.800000000000002;;;4.3;;
67685;SDS011;54469;52.090;4.312;2023-02-28T21:00:03;8.800000000000002;;;4.3;;
67685;SDS011;54469;52.090;4.312;2023-02-28T21:05:03;8.800000000000002;;;4.3;;
67685;SDS011;54469;52.090;4.312;2023-02-28T21:10:02;11.8;;;4.8;;
67685;SDS011;54469;52.090;4.312;2023-02-28T21:15:02;7.8;;;4.7;;
67685;SDS011;54469;52.090;4.312;2023-02-28T21:20:08;7.8;;;4.7;;
67685;SDS011;54469;52.090;4.312;2023-02-28T21:25:03;9.9;;;5;;
67685;SDS011;54469;52.090;4.312;2023-02-28T21:30:02;9.9;;;5;;
67685;SDS011;54469;52.090;4.312;2023-02-28T21:35:02;9.9;;;5;;
67685;SDS011;54469;52.090;4.312;2023-02-28T21:40:03;9.9;;;5;;
67685;SDS011;54469;52.090;4.312;2023-02-28T21:45:03;9.9;;;5;;
67685;SDS011;54469;52.090;4.312;2023-02-28T21:50:02;9.9;;;5;;
67685;SDS011;54469;52.090;4.312;2023-02-28T21:55:03;11.8;;;6;;
67685;SDS011;54469;52.090;4.312;2023-02-28T22:00:03;9.800000000000002;;;5.1;;
67685;SDS011;54469;52.090;4.312;2023-02-28T22:05:03;9.800000000000002;;;5.1;;
67685;SDS011;54469;52.090;4.312;2023-02-28T22:10:03;9.800000000000002;;;5.1;;
67685;SDS011;54469;52.090;4.312;2023-02-28T22:15:02;9.800000000000002;;;5.1;;
67685;SDS011;54469;52.090;4.312;2023-02-28T22:20:03;11.3;;;6.3;;
67685;SDS011;54469;52.090;4.312;2023-02-28T22:25:03;11.3;;;6.3;;
67685;SDS011;54469;52.090;4.312;2023-02-28T22:30:03;11.3;;;6.3;;
67685;SDS011;54469;52.090;4.312;2023-02-28T22:35:03;8;;;5.7;;
67685;SDS011;54469;52.090;4.312;2023-02-28T22:40:03;8;;;5.7;;
67685;SDS011;54469;52.090;4.312;2023-02-28T22:45:03;10.8;;;5.2;;
67685;SDS011;54469;52.090;4.312;2023-02-28T22:50:02;10.8;;;5.2;;
67685;SDS011;54469;52.090;4.312;2023-02-28T22:55:03;8.699999999999998;;;5.3;;
67685;SDS011;54469;52.090;4.312;2023-02-28T23:00:03;10.9;;;5.7;;
67685;SDS011;54469;52.090;4.312;2023-02-28T23:05:02;10.9;;;5.7;;
67685;SDS011;54469;52.090;4.312;2023-02-28T23:10:03;10.9;;;5.7;;
67685;SDS011;54469;52.090;4.312;2023-02-28T23:15:02;10.9;;;5.7;;
67685;SDS011;54469;52.090;4.312;2023-02-28T23:20:03;10.9;;;5.7;;
67685;SDS011;54469;52.090;4.312;2023-02-28T23:25:02;10.9;;;5.7;;
67685;SDS011;54469;52.090;4.312;2023-02-28T23:30:02;10.9;;;5.7;;
67685;SDS011;54469;52.090;4.312;2023-02-28T23:35:03;10.9;;;5.7;;
67685;SDS011;54469;52.090;4.312;2023-02-28T23:40:04;10.9;;;5.7;;
67685;SDS011;54469;52.090;4.312;2023-02-28T23:45:03;10.9;;;5.7;;
67685;SDS011;54469;52.090;4.312;2023-02-28T23:50:03;10.9;;;5.7;;
67685;SDS011;54469;52.090;4.312;2023-02-28T23:55:02;10.9;;;5.7;;
